sensor_id;sensor_type;location;lat;lon;timestamp;P1;durP1;ratioP1;P2;durP2;ratioP2
35644;SDS011;21764;52.042;6.830;2023-12-14T00:02:47;44.53;;;27.65;;
35644;SDS011;21764;52.042;6.830;2023-12-14T00:07:48;49.22;;;28.00;;
35644;SDS011;21764;52.042;6.830;2023-12-14T00:12:50;48.67;;;27.58;;
35644;SDS011;21764;52.042;6.830;2023-12-14T00:17:52;51.28;;;29.00;;
35644;SDS011;21764;52.042;6.830;2023-12-14T00:22:53;50.60;;;29.92;;
35644;SDS011;21764;52.042;6.830;2023-12-14T00:27:54;55.28;;;30.00;;
35644;SDS011;21764;52.042;6.830;2023-12-14T00:32:55;52.45;;;28.13;;
35644;SDS011;21764;52.042;6.830;2023-12-14T00:37:56;48.78;;;28.15;;
35644;SDS011;21764;52.042;6.830;2023-12-14T00:42:57;50.20;;;27.50;;
35644;SDS011;21764;52.042;6.830;2023-12-14T00:47:58;51.00;;;28.25;;
35644;SDS011;21764;52.042;6.830;2023-12-14T00:52:59;64.15;;;36.20;;
35644;SDS011;21764;52.042;6.830;2023-12-14T00:58:00;72.60;;;37.67;;
35644;SDS011;21764;52.042;6.830;2023-12-14T01:03:01;79.50;;;39.63;;
35644;SDS011;21764;52.042;6.830;2023-12-14T01:08:03;87.28;;;43.58;;
35644;SDS011;21764;52.042;6.830;2023-12-14T01:13:06;77.78;;;39.30;;
35644;SDS011;21764;52.042;6.830;2023-12-14T01:18:08;75.20;;;38.20;;
35644;SDS011;21764;52.042;6.830;2023-12-14T01:23:09;74.97;;;38.83;;
35644;SDS011;21764;52.042;6.830;2023-12-14T01:28:10;81.13;;;38.88;;
35644;SDS011;21764;52.042;6.830;2023-12-14T01:33:11;79.68;;;41.45;;
35644;SDS011;21764;52.042;6.830;2023-12-14T01:38:12;82.38;;;41.13;;
35644;SDS011;21764;52.042;6.830;2023-12-14T01:43:13;77.65;;;40.03;;
35644;SDS011;21764;52.042;6.830;2023-12-14T01:48:15;82.57;;;42.55;;
35644;SDS011;21764;52.042;6.830;2023-12-14T01:53:17;86.50;;;42.40;;
35644;SDS011;21764;52.042;6.830;2023-12-14T01:58:18;84.07;;;41.13;;
35644;SDS011;21764;52.042;6.830;2023-12-14T02:03:19;81.30;;;41.22;;
35644;SDS011;21764;52.042;6.830;2023-12-14T02:08:20;78.72;;;39.95;;
35644;SDS011;21764;52.042;6.830;2023-12-14T02:13:21;82.78;;;40.35;;
35644;SDS011;21764;52.042;6.830;2023-12-14T02:18:23;88.45;;;42.33;;
35644;SDS011;21764;52.042;6.830;2023-12-14T02:23:24;89.82;;;44.15;;
35644;SDS011;21764;52.042;6.830;2023-12-14T02:28:25;86.70;;;42.83;;
35644;SDS011;21764;52.042;6.830;2023-12-14T02:33:26;85.22;;;48.08;;
35644;SDS011;21764;52.042;6.830;2023-12-14T02:38:28;75.80;;;39.60;;
35644;SDS011;21764;52.042;6.830;2023-12-14T02:43:29;84.82;;;42.92;;
35644;SDS011;21764;52.042;6.830;2023-12-14T02:48:30;80.15;;;40.40;;
35644;SDS011;21764;52.042;6.830;2023-12-14T02:53:31;83.70;;;41.42;;
35644;SDS011;21764;52.042;6.830;2023-12-14T02:58:32;81.38;;;44.72;;
35644;SDS011;21764;52.042;6.830;2023-12-14T03:03:33;82.43;;;42.63;;
35644;SDS011;21764;52.042;6.830;2023-12-14T03:08:34;81.95;;;44.95;;
35644;SDS011;21764;52.042;6.830;2023-12-14T03:13:35;80.72;;;44.78;;
35644;SDS011;21764;52.042;6.830;2023-12-14T03:18:36;89.55;;;44.65;;
35644;SDS011;21764;52.042;6.830;2023-12-14T03:23:37;81.97;;;44.28;;
35644;SDS011;21764;52.042;6.830;2023-12-14T03:28:38;80.45;;;40.40;;
35644;SDS011;21764;52.042;6.830;2023-12-14T03:33:39;80.40;;;41.90;;
35644;SDS011;21764;52.042;6.830;2023-12-14T03:38:41;76.38;;;44.83;;
35644;SDS011;21764;52.042;6.830;2023-12-14T03:43:42;76.88;;;40.90;;
35644;SDS011;21764;52.042;6.830;2023-12-14T03:48:44;77.82;;;40.88;;
35644;SDS011;21764;52.042;6.830;2023-12-14T03:53:45;73.25;;;39.55;;
35644;SDS011;21764;52.042;6.830;2023-12-14T03:58:46;68.28;;;36.85;;
35644;SDS011;21764;52.042;6.830;2023-12-14T04:03:47;66.43;;;36.67;;
35644;SDS011;21764;52.042;6.830;2023-12-14T04:08:48;59.00;;;34.78;;
35644;SDS011;21764;52.042;6.830;2023-12-14T04:13:49;61.58;;;35.05;;
35644;SDS011;21764;52.042;6.830;2023-12-14T04:18:53;59.47;;;33.67;;
35644;SDS011;21764;52.042;6.830;2023-12-14T04:23:54;58.92;;;34.05;;
35644;SDS011;21764;52.042;6.830;2023-12-14T04:28:55;57.25;;;33.70;;
35644;SDS011;21764;52.042;6.830;2023-12-14T04:33:56;57.92;;;33.25;;
35644;SDS011;21764;52.042;6.830;2023-12-14T04:38:57;53.65;;;31.40;;
35644;SDS011;21764;52.042;6.830;2023-12-14T04:43:58;51.70;;;31.13;;
35644;SDS011;21764;52.042;6.830;2023-12-14T04:48:59;55.55;;;32.00;;
35644;SDS011;21764;52.042;6.830;2023-12-14T04:54:01;53.15;;;31.10;;
35644;SDS011;21764;52.042;6.830;2023-12-14T04:59:02;54.95;;;31.85;;
35644;SDS011;21764;52.042;6.830;2023-12-14T05:04:03;54.30;;;32.50;;
35644;SDS011;21764;52.042;6.830;2023-12-14T05:09:04;52.05;;;32.05;;
35644;SDS011;21764;52.042;6.830;2023-12-14T05:14:06;52.58;;;32.35;;
35644;SDS011;21764;52.042;6.830;2023-12-14T05:19:07;55.55;;;32.17;;
35644;SDS011;21764;52.042;6.830;2023-12-14T05:24:09;56.50;;;32.38;;
35644;SDS011;21764;52.042;6.830;2023-12-14T05:29:11;56.92;;;32.63;;
35644;SDS011;21764;52.042;6.830;2023-12-14T05:34:12;53.83;;;31.88;;
35644;SDS011;21764;52.042;6.830;2023-12-14T05:39:13;53.47;;;30.63;;
35644;SDS011;21764;52.042;6.830;2023-12-14T05:44:14;48.72;;;31.13;;
35644;SDS011;21764;52.042;6.830;2023-12-14T05:49:15;48.60;;;30.25;;
35644;SDS011;21764;52.042;6.830;2023-12-14T05:54:16;47.03;;;28.40;;
35644;SDS011;21764;52.042;6.830;2023-12-14T05:59:18;47.47;;;28.65;;
35644;SDS011;21764;52.042;6.830;2023-12-14T06:04:19;48.03;;;28.45;;
35644;SDS011;21764;52.042;6.830;2023-12-14T06:09:21;44.97;;;27.55;;
35644;SDS011;21764;52.042;6.830;2023-12-14T06:14:26;42.65;;;27.15;;
35644;SDS011;21764;52.042;6.830;2023-12-14T06:19:27;43.85;;;26.85;;
35644;SDS011;21764;52.042;6.830;2023-12-14T06:24:28;43.55;;;26.00;;
35644;SDS011;21764;52.042;6.830;2023-12-14T06:29:29;38.03;;;24.52;;
35644;SDS011;21764;52.042;6.830;2023-12-14T06:34:31;37.42;;;24.13;;
35644;SDS011;21764;52.042;6.830;2023-12-14T06:39:32;40.60;;;24.35;;
35644;SDS011;21764;52.042;6.830;2023-12-14T06:44:33;34.45;;;22.70;;
35644;SDS011;21764;52.042;6.830;2023-12-14T06:49:34;36.83;;;23.75;;
35644;SDS011;21764;52.042;6.830;2023-12-14T06:54:35;33.03;;;21.60;;
35644;SDS011;21764;52.042;6.830;2023-12-14T06:59:36;39.78;;;24.38;;
35644;SDS011;21764;52.042;6.830;2023-12-14T07:04:37;38.92;;;24.75;;
35644;SDS011;21764;52.042;6.830;2023-12-14T07:09:38;40.03;;;24.67;;
35644;SDS011;21764;52.042;6.830;2023-12-14T07:14:39;38.45;;;25.05;;
35644;SDS011;21764;52.042;6.830;2023-12-14T07:19:42;37.40;;;22.92;;
35644;SDS011;21764;52.042;6.830;2023-12-14T07:24:43;37.95;;;23.17;;
35644;SDS011;21764;52.042;6.830;2023-12-14T07:29:44;41.30;;;24.63;;
35644;SDS011;21764;52.042;6.830;2023-12-14T07:34:46;42.53;;;24.17;;
35644;SDS011;21764;52.042;6.830;2023-12-14T07:39:47;39.60;;;24.05;;
35644;SDS011;21764;52.042;6.830;2023-12-14T07:44:48;36.67;;;23.27;;
35644;SDS011;21764;52.042;6.830;2023-12-14T07:49:49;38.03;;;23.02;;
35644;SDS011;21764;52.042;6.830;2023-12-14T07:54:51;40.47;;;23.25;;
35644;SDS011;21764;52.042;6.830;2023-12-14T07:59:52;38.60;;;22.80;;
35644;SDS011;21764;52.042;6.830;2023-12-14T08:04:53;48.42;;;26.27;;
35644;SDS011;21764;52.042;6.830;2023-12-14T08:09:55;36.00;;;22.33;;
35644;SDS011;21764;52.042;6.830;2023-12-14T08:14:56;36.20;;;22.05;;
35644;SDS011;21764;52.042;6.830;2023-12-14T08:19:57;31.95;;;19.73;;
35644;SDS011;21764;52.042;6.830;2023-12-14T08:24:58;30.92;;;19.77;;
35644;SDS011;21764;52.042;6.830;2023-12-14T08:29:59;31.35;;;21.15;;
35644;SDS011;21764;52.042;6.830;2023-12-14T08:35:00;33.08;;;20.52;;
35644;SDS011;21764;52.042;6.830;2023-12-14T08:40:01;31.70;;;19.90;;
35644;SDS011;21764;52.042;6.830;2023-12-14T08:45:03;30.98;;;20.92;;
35644;SDS011;21764;52.042;6.830;2023-12-14T08:50:05;31.65;;;20.48;;
35644;SDS011;21764;52.042;6.830;2023-12-14T08:55:07;29.98;;;20.10;;
35644;SDS011;21764;52.042;6.830;2023-12-14T09:00:09;31.92;;;22.17;;
35644;SDS011;21764;52.042;6.830;2023-12-14T09:05:10;40.08;;;21.90;;
35644;SDS011;21764;52.042;6.830;2023-12-14T09:10:11;39.20;;;25.90;;
35644;SDS011;21764;52.042;6.830;2023-12-14T09:15:12;36.95;;;23.95;;
35644;SDS011;21764;52.042;6.830;2023-12-14T09:20:15;35.83;;;23.27;;
35644;SDS011;21764;52.042;6.830;2023-12-14T09:25:16;35.97;;;25.13;;
35644;SDS011;21764;52.042;6.830;2023-12-14T09:30:18;34.35;;;24.02;;
35644;SDS011;21764;52.042;6.830;2023-12-14T09:35:19;31.55;;;23.15;;
35644;SDS011;21764;52.042;6.830;2023-12-14T09:40:20;34.30;;;23.65;;
35644;SDS011;21764;52.042;6.830;2023-12-14T09:45:27;32.65;;;23.15;;
35644;SDS011;21764;52.042;6.830;2023-12-14T09:50:29;32.35;;;23.08;;
35644;SDS011;21764;52.042;6.830;2023-12-14T09:55:32;33.50;;;24.27;;
35644;SDS011;21764;52.042;6.830;2023-12-14T10:00:34;36.72;;;22.75;;
35644;SDS011;21764;52.042;6.830;2023-12-14T10:05:35;35.08;;;23.75;;
35644;SDS011;21764;52.042;6.830;2023-12-14T10:10:36;36.10;;;26.40;;
35644;SDS011;21764;52.042;6.830;2023-12-14T10:15:41;33.78;;;25.00;;
35644;SDS011;21764;52.042;6.830;2023-12-14T10:25:45;36.50;;;25.77;;
35644;SDS011;21764;52.042;6.830;2023-12-14T10:30:48;40.58;;;25.60;;
35644;SDS011;21764;52.042;6.830;2023-12-14T10:35:49;31.33;;;23.35;;
35644;SDS011;21764;52.042;6.830;2023-12-14T10:40:50;33.13;;;23.27;;
35644;SDS011;21764;52.042;6.830;2023-12-14T10:45:53;31.60;;;22.35;;
35644;SDS011;21764;52.042;6.830;2023-12-14T10:50:54;31.00;;;21.40;;
35644;SDS011;21764;52.042;6.830;2023-12-14T10:55:56;25.80;;;17.75;;
35644;SDS011;21764;52.042;6.830;2023-12-14T11:01:00;23.08;;;16.95;;
35644;SDS011;21764;52.042;6.830;2023-12-14T11:06:01;25.08;;;17.35;;
35644;SDS011;21764;52.042;6.830;2023-12-14T11:11:05;25.52;;;18.98;;
35644;SDS011;21764;52.042;6.830;2023-12-14T11:16:11;40.67;;;28.90;;
35644;SDS011;21764;52.042;6.830;2023-12-14T11:26:41;27.88;;;17.10;;
35644;SDS011;21764;52.042;6.830;2023-12-14T11:31:53;26.98;;;16.65;;
35644;SDS011;21764;52.042;6.830;2023-12-14T11:36:58;27.10;;;17.38;;
35644;SDS011;21764;52.042;6.830;2023-12-14T11:42:31;23.90;;;17.30;;
35644;SDS011;21764;52.042;6.830;2023-12-14T11:47:54;29.13;;;17.98;;
35644;SDS011;21764;52.042;6.830;2023-12-14T11:53:01;24.00;;;17.23;;
35644;SDS011;21764;52.042;6.830;2023-12-14T12:03:34;27.90;;;19.80;;
35644;SDS011;21764;52.042;6.830;2023-12-14T12:09:05;28.13;;;19.73;;
35644;SDS011;21764;52.042;6.830;2023-12-14T12:14:14;28.80;;;17.77;;
35644;SDS011;21764;52.042;6.830;2023-12-14T12:19:42;28.70;;;17.98;;
35644;SDS011;21764;52.042;6.830;2023-12-14T12:25:11;32.92;;;22.13;;
35644;SDS011;21764;52.042;6.830;2023-12-14T12:30:20;31.63;;;18.38;;
35644;SDS011;21764;52.042;6.830;2023-12-14T12:35:37;28.73;;;18.35;;
35644;SDS011;21764;52.042;6.830;2023-12-14T12:40:40;26.85;;;17.38;;
35644;SDS011;21764;52.042;6.830;2023-12-14T12:45:46;48.90;;;24.43;;
35644;SDS011;21764;52.042;6.830;2023-12-14T12:51:30;188.07;;;94.13;;
35644;SDS011;21764;52.042;6.830;2023-12-14T12:56:41;108.68;;;36.45;;
35644;SDS011;21764;52.042;6.830;2023-12-14T13:02:25;38.58;;;21.48;;
35644;SDS011;21764;52.042;6.830;2023-12-14T13:07:47;27.77;;;18.05;;
35644;SDS011;21764;52.042;6.830;2023-12-14T13:12:50;91.45;;;39.75;;
35644;SDS011;21764;52.042;6.830;2023-12-14T13:18:00;140.52;;;59.42;;
35644;SDS011;21764;52.042;6.830;2023-12-14T13:23:30;39.33;;;23.23;;
35644;SDS011;21764;52.042;6.830;2023-12-14T13:28:55;54.67;;;30.60;;
35644;SDS011;21764;52.042;6.830;2023-12-14T13:34:07;62.17;;;37.38;;
35644;SDS011;21764;52.042;6.830;2023-12-14T13:39:17;52.85;;;31.52;;
35644;SDS011;21764;52.042;6.830;2023-12-14T13:44:36;45.80;;;30.33;;
35644;SDS011;21764;52.042;6.830;2023-12-14T13:49:47;36.53;;;23.15;;
35644;SDS011;21764;52.042;6.830;2023-12-14T13:54:58;30.23;;;20.27;;
35644;SDS011;21764;52.042;6.830;2023-12-14T14:00:00;34.25;;;22.02;;
35644;SDS011;21764;52.042;6.830;2023-12-14T14:05:10;55.92;;;31.02;;
35644;SDS011;21764;52.042;6.830;2023-12-14T14:10:18;42.83;;;25.77;;
35644;SDS011;21764;52.042;6.830;2023-12-14T14:15:25;40.35;;;23.33;;
35644;SDS011;21764;52.042;6.830;2023-12-14T14:20:33;29.05;;;17.58;;
35644;SDS011;21764;52.042;6.830;2023-12-14T14:25:55;43.42;;;23.90;;
35644;SDS011;21764;52.042;6.830;2023-12-14T14:30:59;36.60;;;21.15;;
35644;SDS011;21764;52.042;6.830;2023-12-14T14:36:31;79.82;;;38.83;;
35644;SDS011;21764;52.042;6.830;2023-12-14T14:41:32;69.75;;;34.17;;
35644;SDS011;21764;52.042;6.830;2023-12-14T14:51:39;38.80;;;23.60;;
35644;SDS011;21764;52.042;6.830;2023-12-14T14:56:55;32.88;;;18.45;;
35644;SDS011;21764;52.042;6.830;2023-12-14T15:02:06;33.63;;;20.45;;
35644;SDS011;21764;52.042;6.830;2023-12-14T15:07:08;32.88;;;17.02;;
35644;SDS011;21764;52.042;6.830;2023-12-14T15:12:18;49.85;;;26.95;;
35644;SDS011;21764;52.042;6.830;2023-12-14T15:17:26;27.88;;;17.10;;
35644;SDS011;21764;52.042;6.830;2023-12-14T15:22:59;29.08;;;16.08;;
35644;SDS011;21764;52.042;6.830;2023-12-14T15:28:05;34.30;;;18.55;;
35644;SDS011;21764;52.042;6.830;2023-12-14T15:33:09;31.42;;;16.83;;
35644;SDS011;21764;52.042;6.830;2023-12-14T15:38:18;31.08;;;16.83;;
35644;SDS011;21764;52.042;6.830;2023-12-14T15:43:21;35.72;;;17.02;;
35644;SDS011;21764;52.042;6.830;2023-12-14T15:48:29;33.70;;;17.70;;
35644;SDS011;21764;52.042;6.830;2023-12-14T15:53:36;42.25;;;17.80;;
35644;SDS011;21764;52.042;6.830;2023-12-14T15:58:39;38.00;;;19.48;;
35644;SDS011;21764;52.042;6.830;2023-12-14T16:03:40;47.08;;;23.23;;
35644;SDS011;21764;52.042;6.830;2023-12-14T16:08:53;40.30;;;22.40;;
35644;SDS011;21764;52.042;6.830;2023-12-14T16:13:56;38.90;;;21.33;;
35644;SDS011;21764;52.042;6.830;2023-12-14T16:18:59;43.75;;;23.80;;
35644;SDS011;21764;52.042;6.830;2023-12-14T16:24:02;45.50;;;23.45;;
35644;SDS011;21764;52.042;6.830;2023-12-14T16:29:19;39.53;;;21.08;;
35644;SDS011;21764;52.042;6.830;2023-12-14T16:34:43;42.53;;;22.27;;
35644;SDS011;21764;52.042;6.830;2023-12-14T16:39:45;47.53;;;24.97;;
35644;SDS011;21764;52.042;6.830;2023-12-14T16:44:48;59.67;;;28.50;;
35644;SDS011;21764;52.042;6.830;2023-12-14T16:49:50;47.42;;;25.48;;
35644;SDS011;21764;52.042;6.830;2023-12-14T16:59:56;38.47;;;21.65;;
35644;SDS011;21764;52.042;6.830;2023-12-14T17:05:07;45.47;;;23.23;;
35644;SDS011;21764;52.042;6.830;2023-12-14T17:10:09;44.10;;;23.23;;
35644;SDS011;21764;52.042;6.830;2023-12-14T17:15:12;45.45;;;22.83;;
35644;SDS011;21764;52.042;6.830;2023-12-14T17:20:15;52.85;;;28.40;;
35644;SDS011;21764;52.042;6.830;2023-12-14T17:25:18;48.63;;;26.10;;
35644;SDS011;21764;52.042;6.830;2023-12-14T17:35:29;52.35;;;24.98;;
35644;SDS011;21764;52.042;6.830;2023-12-14T17:40:37;52.53;;;27.80;;
35644;SDS011;21764;52.042;6.830;2023-12-14T17:45:41;53.53;;;26.03;;
35644;SDS011;21764;52.042;6.830;2023-12-14T17:50:48;63.72;;;31.77;;
35644;SDS011;21764;52.042;6.830;2023-12-14T17:56:09;47.30;;;23.45;;
35644;SDS011;21764;52.042;6.830;2023-12-14T18:01:11;62.78;;;32.85;;
35644;SDS011;21764;52.042;6.830;2023-12-14T18:06:16;50.65;;;27.00;;
35644;SDS011;21764;52.042;6.830;2023-12-14T18:11:19;48.50;;;26.98;;
35644;SDS011;21764;52.042;6.830;2023-12-14T18:16:24;50.13;;;27.83;;
35644;SDS011;21764;52.042;6.830;2023-12-14T18:21:26;59.65;;;28.90;;
35644;SDS011;21764;52.042;6.830;2023-12-14T18:26:29;52.08;;;29.20;;
35644;SDS011;21764;52.042;6.830;2023-12-14T18:31:34;51.60;;;27.80;;
35644;SDS011;21764;52.042;6.830;2023-12-14T18:36:36;54.45;;;26.67;;
35644;SDS011;21764;52.042;6.830;2023-12-14T18:41:40;56.33;;;27.38;;
35644;SDS011;21764;52.042;6.830;2023-12-14T18:46:45;57.95;;;29.45;;
35644;SDS011;21764;52.042;6.830;2023-12-14T18:51:46;64.93;;;34.45;;
35644;SDS011;21764;52.042;6.830;2023-12-14T18:56:50;52.78;;;29.23;;
35644;SDS011;21764;52.042;6.830;2023-12-14T19:01:53;56.42;;;26.98;;
35644;SDS011;21764;52.042;6.830;2023-12-14T19:07:00;49.85;;;26.50;;
35644;SDS011;21764;52.042;6.830;2023-12-14T19:12:11;50.42;;;25.60;;
35644;SDS011;21764;52.042;6.830;2023-12-14T19:17:14;48.92;;;26.23;;
35644;SDS011;21764;52.042;6.830;2023-12-14T19:22:18;50.83;;;25.70;;
35644;SDS011;21764;52.042;6.830;2023-12-14T19:27:39;42.95;;;23.17;;
35644;SDS011;21764;52.042;6.830;2023-12-14T19:32:54;45.22;;;24.08;;
35644;SDS011;21764;52.042;6.830;2023-12-14T19:37:59;48.88;;;25.15;;
35644;SDS011;21764;52.042;6.830;2023-12-14T19:43:07;47.17;;;25.88;;
35644;SDS011;21764;52.042;6.830;2023-12-14T19:48:12;51.50;;;26.35;;
35644;SDS011;21764;52.042;6.830;2023-12-14T19:53:15;49.75;;;26.20;;
35644;SDS011;21764;52.042;6.830;2023-12-14T19:58:19;54.13;;;27.42;;
35644;SDS011;21764;52.042;6.830;2023-12-14T20:08:51;54.92;;;28.65;;
35644;SDS011;21764;52.042;6.830;2023-12-14T20:13:56;48.63;;;27.48;;
35644;SDS011;21764;52.042;6.830;2023-12-14T20:19:00;51.65;;;26.08;;
35644;SDS011;21764;52.042;6.830;2023-12-14T20:24:16;50.22;;;26.58;;
35644;SDS011;21764;52.042;6.830;2023-12-14T20:29:18;51.67;;;27.25;;
35644;SDS011;21764;52.042;6.830;2023-12-14T20:34:22;53.92;;;28.63;;
35644;SDS011;21764;52.042;6.830;2023-12-14T20:39:43;55.47;;;27.17;;
35644;SDS011;21764;52.042;6.830;2023-12-14T20:44:52;53.05;;;28.42;;
35644;SDS011;21764;52.042;6.830;2023-12-14T20:50:02;52.65;;;27.52;;
35644;SDS011;21764;52.042;6.830;2023-12-14T20:55:07;56.15;;;29.58;;
35644;SDS011;21764;52.042;6.830;2023-12-14T21:00:09;58.35;;;30.48;;
35644;SDS011;21764;52.042;6.830;2023-12-14T21:05:15;50.95;;;27.95;;
35644;SDS011;21764;52.042;6.830;2023-12-14T21:10:26;51.95;;;27.75;;
35644;SDS011;21764;52.042;6.830;2023-12-14T21:15:28;54.83;;;28.02;;
35644;SDS011;21764;52.042;6.830;2023-12-14T21:20:33;52.38;;;27.65;;
35644;SDS011;21764;52.042;6.830;2023-12-14T21:25:35;63.60;;;29.45;;
35644;SDS011;21764;52.042;6.830;2023-12-14T21:31:03;52.38;;;27.38;;
35644;SDS011;21764;52.042;6.830;2023-12-14T21:36:05;58.45;;;29.38;;
35644;SDS011;21764;52.042;6.830;2023-12-14T21:41:11;61.90;;;29.63;;
35644;SDS011;21764;52.042;6.830;2023-12-14T21:46:13;60.30;;;29.27;;
35644;SDS011;21764;52.042;6.830;2023-12-14T21:51:17;55.50;;;29.52;;
35644;SDS011;21764;52.042;6.830;2023-12-14T21:56:24;59.90;;;29.77;;
35644;SDS011;21764;52.042;6.830;2023-12-14T22:01:26;58.38;;;31.10;;
35644;SDS011;21764;52.042;6.830;2023-12-14T22:06:32;59.47;;;29.40;;
35644;SDS011;21764;52.042;6.830;2023-12-14T22:11:36;60.33;;;29.67;;
35644;SDS011;21764;52.042;6.830;2023-12-14T22:16:40;65.88;;;30.40;;
35644;SDS011;21764;52.042;6.830;2023-12-14T22:21:43;57.20;;;30.10;;
35644;SDS011;21764;52.042;6.830;2023-12-14T22:26:54;58.90;;;30.40;;
35644;SDS011;21764;52.042;6.830;2023-12-14T22:31:57;66.88;;;32.22;;
35644;SDS011;21764;52.042;6.830;2023-12-14T22:36:59;60.60;;;29.45;;
35644;SDS011;21764;52.042;6.830;2023-12-14T22:42:02;68.25;;;32.55;;
35644;SDS011;21764;52.042;6.830;2023-12-14T22:47:03;65.70;;;33.25;;
